Terminal Aerodrome Forecast
Issued by NWS Boise, ID

Home | Current Version | Previous Version | Text Only | Print | Product List | Glossary On
Versions: 1 2 3 4 5 6 7 8 9 10 11 12 13 14 15 16 17 18 19 20 21 22 23 24 25 26 27 28 29 30 31 32 33 34 35
000
FTUS45 KBOI 012335
TAFBOI
TAF
KBOI 012335Z 0200/0224 13012KT P6SM VCSH BKN050 OVC080
     FM020200 VRB05KT P6SM -RA SCT025 OVC035
     FM021400 VRB03KT P6SM VCSH SCT025 OVC035
     FM022000 13007KT 6SM -RA BR OVC025=

USA.gov is the U.S. government's official web portal to all federal, state and local government web resources and services.